M I D A S
Marine Information and Data Acquisition System
Tripno 1261 of the Zeeleeuw from 2007-04-11 06:25:57 to 2007-04-11 16:50:56
Back to CruiseResearch ActivitiesStationsMapUnderway DataData graphs

EquipmentUnitsComment
TimeDGPSUTC
LatitudeDGPSDM.mWGS84
LongitudeDGPSDM.mWGS84
TemperatureSBE03/SBE38deg celciusITS90
ConductivitySBE21S/mITS90
SalinitySBE21 Practical Salinity Units
ChlorophylAChelsea fluorimeterg/lCalibrated in Aceton
Missing or incorrect values are displayed as -999
Sea surface data collected by the RV Zeeleeuw from 2007-04-11 06:25:11 to 2007-04-11 17:00:22
Time Latitude Longitude Temperature Conductivity Salinity ChlorophylA
2007-04-11 06:26:16 51°13.601 2°56.1 12.5138 2.879737 22.548616 -2.871232
2007-04-11 06:27:16 51°13.601 2°56.099 11.7157 2.886051 22.954641 -2.871232
2007-04-11 06:28:17 51°13.607 2°56.074 11.235 3.010388 24.615757 -2.871232
2007-04-11 06:29:16 51°13.631 2°55.984 10.9259 3.073087 25.505449 -2.871232
2007-04-11 06:30:16 51°13.665 2°55.878 10.8437 3.081574 25.730411 -2.871232
2007-04-11 06:31:15 51°13.681 2°55.802 10.8613 3.014223 25.133702 -2.871232
2007-04-11 06:32:13 51°13.683 2°55.76 10.8689 3.01981 25.202691 -2.871232
2007-04-11 06:33:13 51°13.687 2°55.76 10.9125 2.946571 24.507507 -2.871232
2007-04-11 06:34:12 51°13.698 2°55.771 10.9001 2.939124 24.433153 -2.871232
2007-04-11 06:35:16 51°13.708 2°55.762 10.8407 2.966121 24.702827 -2.871232
2007-04-11 06:36:14 51°13.765 2°55.697 10.8886 3.017741 25.211957 -2.871232
2007-04-11 06:37:13 51°13.866 2°55.611 10.8091 2.970156 24.742958 -2.871232
2007-04-11 06:38:12 51°13.996 2°55.518 10.8128 3.067194 25.693932 -2.871232
2007-04-11 06:39:13 51°14.136 2°55.415 10.8297 3.042674 25.462875 -2.871232
2007-04-11 06:40:16 51°14.278 2°55.248 10.8401 3.015362 25.211446 -2.871232
2007-04-11 06:41:14 51°14.392 2°55.002 10.7474 2.981224 24.881895 -2.871232
2007-04-11 06:42:12 51°14.52 2°54.732 10.4646 3.14604 26.520515 -2.871232
2007-04-11 06:43:12 51°14.637 2°54.443 10.3232 3.326756 28.419757 -2.871232
2007-04-11 06:44:12 51°14.708 2°54.128 10.2975 3.350154 28.71759 -2.871232
2007-04-11 06:45:12 51°14.724 2°53.797 10.28 3.351811 28.763285 -2.871232
2007-04-11 06:46:12 51°14.74 2°53.457 10.2656 3.36527 28.905222 -2.871232
2007-04-11 06:47:13 51°14.761 2°53.108 10.2628 3.365477 28.913079 -2.871232
2007-04-11 06:48:13 51°14.783 2°52.764 10.274 3.35854 28.844134 -2.871232
2007-04-11 06:49:13 51°14.818 2°52.426 10.2628 3.370757 28.956704 -2.871232
2007-04-11 06:50:13 51°14.85 2°52.09 10.2089 3.383078 29.098438 -2.871232
2007-04-11 06:51:13 51°14.867 2°51.753 10.1497 3.386495 29.175603 -2.871232
2007-04-11 06:52:12 51°14.877 2°51.42 10.0743 3.395504 29.317731 -2.871232
2007-04-11 06:53:13 51°14.888 2°51.079 10.077 3.405444 29.465615 -2.871232
2007-04-11 06:54:13 51°14.898 2°50.744 10.0699 3.394158 29.350635 -2.871232
2007-04-11 06:55:13 51°14.912 2°50.408 10.0695 3.400681 29.418433 -2.871232
2007-04-11 06:56:13 51°14.924 2°50.073 10.0869 3.401302 29.420621 -2.871232
2007-04-11 06:57:12 51°14.936 2°49.744 10.0897 3.400163 29.393891 -2.871232
2007-04-11 06:58:13 51°14.95 2°49.403 10.0741 3.397679 29.381366 -2.871232
2007-04-11 06:59:13 51°14.963 2°49.068 10.0529 3.412381 29.532916 -2.871232
2007-04-11 07:00:13 51°14.975 2°48.732 10.0246 3.419423 29.620969 -2.871232
2007-04-11 07:01:12 51°14.988 2°48.403 10.0199 3.42108 29.655891 -2.871232
2007-04-11 07:02:13 51°15.003 2°48.065 10.0326 3.416731 29.612581 -2.871232
2007-04-11 07:03:13 51°15.018 2°47.733 9.9672 3.41642 29.608077 -2.871232
2007-04-11 07:04:13 51°15.03 2°47.398 9.8846 3.421391 29.725239 -2.871232
2007-04-11 07:05:13 51°15.04 2°47.056 9.8353 3.442619 29.994616 -2.871232
2007-04-11 07:06:12 51°15.051 2°46.718 9.8347 3.453907 30.12934 -2.871232
2007-04-11 07:07:13 51°15.063 2°46.367 9.8358 3.455978 30.151714 -2.871232
2007-04-11 07:08:13 51°15.075 2°46.024 9.8386 3.452767 30.118319 -2.871232
2007-04-11 07:09:13 51°15.088 2°45.683 9.8314 3.475653 30.342984 -2.871232
2007-04-11 07:10:13 51°15.102 2°45.345 9.8279 3.473271 30.32696 -2.871232
2007-04-11 07:11:13 51°15.116 2°45.008 9.8261 3.472236 30.317712 -2.871232
2007-04-11 07:12:12 51°15.13 2°44.675 9.8211 3.473375 30.330313 -2.871232
2007-04-11 07:13:13 51°15.146 2°44.334 9.8456 3.472236 30.319277 -2.871232
2007-04-11 07:14:13 51°15.161 2°43.998 9.8388 3.465297 30.23412 -2.871232
2007-04-11 07:15:13 51°15.177 2°43.664 9.8295 3.466022 30.24816 -2.871232
2007-04-11 07:16:13 51°15.191 2°43.33 9.777 3.464262 30.251418 -2.871232
2007-04-11 07:17:13 51°15.206 2°42.996 9.7408 3.470787 30.359322 -2.871232
2007-04-11 07:18:13 51°15.221 2°42.66 9.7173 3.469544 30.372405 -2.871232
2007-04-11 07:19:13 51°15.234 2°42.323 9.7105 3.475965 30.451327 -2.871232
2007-04-11 07:20:13 51°15.245 2°41.984 9.7382 3.487667 30.5469 -2.871232
2007-04-11 07:21:13 51°15.256 2°41.643 9.7178 3.499991 30.673857 -2.871232
2007-04-11 07:22:13 51°15.267 2°41.301 9.7227 3.501648 30.705881 -2.871232
2007-04-11 07:23:13 51°15.279 2°40.96 9.7468 3.500612 30.677518 -2.871232
2007-04-11 07:24:13 51°15.293 2°40.619 9.7651 3.500819 30.66127 -2.871232
2007-04-11 07:25:13 51°15.308 2°40.275 9.7803 3.500819 30.645408 -2.871232
2007-04-11 07:26:13 51°15.323 2°39.933 9.7875 3.500508 30.635258 -2.871232
2007-04-11 07:27:13 51°15.339 2°39.596 9.7924 3.495123 30.570309 -2.871232
2007-04-11 07:28:13 51°15.355 2°39.261 9.773 3.492327 30.546328 -2.871232
2007-04-11 07:29:13 51°15.369 2°38.924 9.7661 3.490981 30.549055 -2.871232
2007-04-11 07:30:13 51°15.378 2°38.583 9.7272 3.50403 30.687714 -2.871232
2007-04-11 07:31:13 51°15.389 2°38.242 9.7164 3.512212 30.802329 -2.871232
2007-04-11 07:32:13 51°15.401 2°37.903 9.7135 3.510348 30.787373 -2.871232
2007-04-11 07:33:13 51°15.412 2°37.563 9.7225 3.51014 30.782963 -2.871232
2007-04-11 07:34:13 51°15.425 2°37.223 9.7355 3.507137 30.750542 -2.871232
2007-04-11 07:35:13 51°15.447 2°36.883 9.7513 3.502166 30.681504 -2.871232
2007-04-11 07:36:13 51°15.469 2°36.543 9.7588 3.501855 30.675307 -2.871232
2007-04-11 07:37:13 51°15.493 2°36.202 9.7585 3.504962 30.700747 -2.871232
2007-04-11 07:38:13 51°15.518 2°35.861 9.7327 3.505272 30.701383 -2.871232
2007-04-11 07:39:13 51°15.541 2°35.517 9.7155 3.50983 30.770372 -2.871232
2007-04-11 07:40:13 51°15.568 2°35.17 9.7383 3.51304 30.817581 -2.871232
2007-04-11 07:41:13 51°15.595 2°34.825 9.7257 3.509933 30.758633 -2.871232
2007-04-11 07:42:13 51°15.625 2°34.479 9.7207 3.512522 30.798172 -2.871232
2007-04-11 07:43:13 51°15.655 2°34.134 9.771 3.511383 30.771941 -2.871232
2007-04-11 07:44:13 51°15.684 2°33.791 9.7641 3.513557 30.773181 -2.871232
2007-04-11 07:45:13 51°15.714 2°33.45 9.7229 3.518839 30.833313 -2.871232
2007-04-11 07:46:13 51°15.733 2°33.102 9.6465 3.534375 31.024627 -2.871232
2007-04-11 07:47:13 51°15.754 2°32.75 9.5229 3.570317 31.478013 -2.871232
2007-04-11 07:48:13 51°15.776 2°32.398 9.5306 3.584509 31.686281 -2.871232
2007-04-11 07:49:13 51°15.776 2°32.044 9.5755 3.583369 31.656932 -2.871232
2007-04-11 07:50:13 51°15.679 2°31.757 9.637 3.577879 31.545518 -2.871232
2007-04-11 07:51:12 51°15.51 2°31.564 9.6382 3.576428 31.498549 -2.871232
2007-04-11 07:52:13 51°15.337 2°31.362 9.6421 3.581814 31.554535 -2.871232
2007-04-11 07:53:13 51°15.169 2°31.156 9.6435 3.582125 31.552658 -2.871232
2007-04-11 07:54:13 51°15.004 2°30.941 9.6449 3.583679 31.566224 -2.871232
2007-04-11 07:55:13 51°14.838 2°30.722 9.6313 3.593623 31.672612 -2.871232
2007-04-11 07:56:13 51°14.674 2°30.506 9.6541 3.596523 31.697724 -2.871232
2007-04-11 07:57:13 51°14.539 2°30.344 9.6627 3.600563 31.726576 -2.871232
2007-04-11 07:58:13 51°14.458 2°30.266 9.681 3.603981 31.742738 -2.871232
2007-04-11 07:59:14 51°14.459 2°30.271 9.6813 3.605949 31.752937 -2.871232
2007-04-11 08:00:16 51°14.465 2°30.283 9.6798 3.606571 31.760668 -2.871232
2007-04-11 08:01:16 51°14.47 2°30.293 9.6773 3.606778 31.764344 -2.871232
2007-04-11 08:02:14 51°14.471 2°30.291 9.6768 3.606881 31.767007 -2.871232
2007-04-11 08:03:13 51°14.466 2°30.267 9.6787 3.606985 31.768845 -2.871232
2007-04-11 08:04:13 51°14.452 2°30.23 9.6867 3.607503 31.769792 -2.871232
2007-04-11 08:05:13 51°14.434 2°30.192 9.6895 3.608228 31.768644 -2.871232
2007-04-11 08:06:13 51°14.42 2°30.159 9.6927 3.608953 31.774915 -2.871232
2007-04-11 08:07:13 51°14.413 2°30.143 9.6959 3.609782 31.778078 -2.871232
2007-04-11 08:08:13 51°14.428 2°30.059 9.7073 3.610714 31.781428 -2.871232
2007-04-11 08:09:13 51°14.559 2°29.986 9.7076 3.612475 31.79206 -2.871232
2007-04-11 08:10:13 51°14.634 2°30.1 9.717 3.607399 31.736657 -2.871232
2007-04-11 08:11:13 51°14.579 2°30.201 9.731 3.599941 31.657183 -2.871232
2007-04-11 08:12:13 51°14.502 2°30.204 9.7049 3.606467 31.717675 -2.871232
2007-04-11 08:13:13 51°14.442 2°30.2 9.7005 3.608435 31.755018 -2.871232
2007-04-11 08:14:13 51°14.41 2°30.191 9.7037 3.609678 31.770471 -2.871232
2007-04-11 08:15:13 51°14.393 2°30.131 9.7377 3.61175 31.788264 -2.871232
2007-04-11 08:16:13 51°14.485 2°30.01 9.728 3.61465 31.796849 -2.871232
2007-04-11 08:17:13 51°14.617 2°30.069 9.7383 3.614754 31.79127 -2.871232
2007-04-11 08:18:13 51°14.564 2°30.221 9.7263 3.607502 31.720401 -2.871232
2007-04-11 08:19:13 51°14.465 2°30.276 9.7094 3.609263 31.74995 -2.871232
2007-04-11 08:20:13 51°14.416 2°30.25 9.7038 3.608331 31.749888 -2.871232
2007-04-11 08:21:16 51°14.43 2°30.284 9.6961 3.612371 31.791871 -2.871232
2007-04-11 08:22:16 51°14.43 2°30.24 9.7003 3.611543 31.793658 -2.871232
2007-04-11 08:23:14 51°14.44 2°30.155 9.7013 3.612061 31.794602 -2.871232
2007-04-11 08:24:13 51°14.438 2°30.095 9.7076 3.612786 31.800047 -2.871232
2007-04-11 08:25:13 51°14.427 2°30.041 9.7201 3.613718 31.804219 -2.871232
2007-04-11 08:26:13 51°14.347 2°29.943 9.7602 3.614857 31.793931 -2.871232
2007-04-11 08:27:13 51°14.314 2°30.063 9.7575 3.614235 31.768922 -2.871232
2007-04-11 08:28:13 51°14.386 2°30.136 9.7745 3.61496 31.770247 -2.871232
2007-04-11 08:29:13 51°14.431 2°30.203 9.7605 3.617757 31.782757 -2.871232
2007-04-11 08:30:13 51°14.456 2°30.259 9.7417 3.617654 31.803144 -2.871232
2007-04-11 08:31:13 51°14.472 2°30.375 9.7206 3.616618 31.804553 -2.871232
2007-04-11 08:32:13 51°14.538 2°30.443 9.7195 3.614132 31.800026 -2.871232
2007-04-11 08:33:13 51°14.582 2°30.352 9.711 3.612268 31.786736 -2.871232
2007-04-11 08:34:13 51°14.532 2°30.28 9.7053 3.611335 31.785036 -2.871232
2007-04-11 08:35:13 51°14.469 2°30.221 9.7002 3.611853 31.789278 -2.871232
2007-04-11 08:36:13 51°14.415 2°30.172 9.7187 3.611957 31.795238 -2.871232
2007-04-11 08:37:13 51°14.395 2°30.109 9.7463 3.615375 31.801466 -2.871232
2007-04-11 08:38:13 51°14.416 2°30.027 9.7936 3.617032 31.802012 -2.871232
2007-04-11 08:39:13 51°14.524 2°30.012 9.7684 3.618275 31.769728 -2.871232
2007-04-11 08:40:13 51°14.618 2°30.144 9.7955 3.619 31.784203 -2.871232
2007-04-11 08:41:13 51°14.562 2°30.225 9.7611 3.614856 31.746222 -2.871232
2007-04-11 08:42:13 51°14.489 2°30.231 9.7213 3.616204 31.797208 -2.871232
2007-04-11 08:43:13 51°14.436 2°30.194 9.7446 3.615479 31.800006 -2.871232
2007-04-11 08:44:13 51°14.394 2°30.185 9.7625 3.617032 31.801189 -2.871232
2007-04-11 08:45:13 51°14.354 2°30.177 9.7746 3.618586 31.802371 -2.871232
2007-04-11 08:46:13 51°14.316 2°30.156 9.7787 3.619829 31.800519 -2.871232
2007-04-11 08:47:13 51°14.295 2°30.122 9.7762 3.619311 31.800399 -2.871232
2007-04-11 08:48:13 51°14.281 2°30.093 9.7764 3.619622 31.798496 -2.871232
2007-04-11 08:49:13 51°14.271 2°30.071 9.7805 3.619829 31.800519 -2.871232
2007-04-11 08:50:13 51°14.262 2°30.055 9.7948 3.620554 31.801017 -2.871232
2007-04-11 08:51:13 51°14.255 2°30.044 9.8085 3.622211 31.801567 -2.871232
2007-04-11 08:52:13 51°14.25 2°30.038 9.8125 3.623454 31.802186 -2.871232
2007-04-11 08:53:13 51°14.247 2°30.032 9.815 3.623765 31.804396 -2.871232
2007-04-11 08:54:13 51°14.245 2°30.029 9.8173 3.624283 31.805338 -2.871232
2007-04-11 08:55:13 51°14.245 2°30.027 9.7997 3.623661 31.806673 -2.871232
2007-04-11 08:56:13 51°14.245 2°30.025 9.7994 3.622626 31.805611 -2.871232
2007-04-11 08:57:13 51°14.245 2°30.024 9.8016 3.622522 31.805422 -2.871232
2007-04-11 08:58:13 51°14.247 2°30.021 9.804 3.622522 31.806245 -2.871232
2007-04-11 08:59:13 51°14.249 2°30.017 9.8038 3.622522 31.805422 -2.871232
2007-04-11 09:00:13 51°14.251 2°30.012 9.8187 3.62304 31.80472 -2.871232
2007-04-11 09:01:13 51°14.252 2°30.029 9.8476 3.624076 31.805783 -2.871232
2007-04-11 09:02:13 51°14.273 2°30.073 9.8427 3.626769 31.801648 -2.871232
2007-04-11 09:03:13 51°14.317 2°30.108 9.8425 3.625318 31.796544 -2.871232
2007-04-11 09:04:13 51°14.355 2°30.126 9.8539 3.626458 31.79944 -2.871232
2007-04-11 09:05:13 51°14.387 2°30.131 9.8516 3.626251 31.797421 -2.871232
2007-04-11 09:06:13 51°14.414 2°30.128 9.8448 3.625733 31.793193 -2.871232
2007-04-11 09:07:13 51°14.436 2°30.121 9.8293 3.624697 31.791305 -2.871232
2007-04-11 09:08:13 51°14.454 2°30.114 9.8126 3.62304 31.79157 -2.871232
2007-04-11 09:09:13 51°14.471 2°30.107 9.7981 3.621693 31.790758 -2.871232
2007-04-11 09:10:13 51°14.485 2°30.1 9.7974 3.620657 31.790514 -2.871232
2007-04-11 09:11:13 51°14.498 2°30.093 9.7911 3.620243 31.792225 -2.871232
2007-04-11 09:12:13 51°14.51 2°30.089 9.7835 3.619518 31.791726 -2.871232
2007-04-11 09:13:13 51°14.521 2°30.087 9.8055 3.62014 31.792859 -2.871232
2007-04-11 09:14:13 51°14.53 2°30.087 9.8349 3.622315 31.792713 -2.871232
2007-04-11 09:15:13 51°14.538 2°30.086 9.8725 3.625008 31.787767 -2.871232
2007-04-11 09:16:13 51°14.546 2°30.087 9.8903 3.627183 31.78189 -2.871232
2007-04-11 09:17:13 51°14.552 2°30.088 9.9053 3.628633 31.779618 -2.871232
2007-04-11 09:18:13 51°14.557 2°30.089 9.9188 3.629669 31.776593 -2.871232
2007-04-11 09:19:13 51°14.562 2°30.087 9.9252 3.630601 31.776657 -2.871232
2007-04-11 09:20:13 51°14.567 2°30.085 9.9269 3.631119 31.775965 -2.871232
2007-04-11 09:21:13 51°14.571 2°30.083 9.9288 3.631222 31.773699 -2.871232
2007-04-11 09:22:13 51°14.574 2°30.081 9.9162 3.62915 31.758456 -2.871232
2007-04-11 09:23:13 51°14.577 2°30.077 9.9001 3.629979 31.776342 -2.871232
2007-04-11 09:24:13 51°14.579 2°30.073 9.8956 3.628943 31.779366 -2.871232
2007-04-11 09:25:13 51°14.582 2°30.069 9.8955 3.62884 31.779996 -2.871232
2007-04-11 09:26:13 51°14.583 2°30.066 9.8877 3.628944 31.783463 -2.871232
2007-04-11 09:27:13 51°14.585 2°30.061 9.8751 3.628219 31.785419 -2.871232
2007-04-11 09:28:13 51°14.586 2°30.056 9.867 3.62739 31.786368 -2.871232
2007-04-11 09:29:13 51°14.587 2°30.051 9.8559 3.626458 31.787949 -2.871232
2007-04-11 09:30:13 51°14.586 2°30.045 9.8638 3.626251 31.787572 -2.871232
2007-04-11 09:31:13 51°14.585 2°30.039 9.8573 3.626458 31.787129 -2.871232
2007-04-11 09:32:13 51°14.584 2°30.032 9.8578 3.626354 31.78612 -2.871232
2007-04-11 09:33:13 51°14.583 2°30.024 9.8591 3.62594 31.787825 -2.871232
2007-04-11 09:34:13 51°14.581 2°30.016 9.8759 3.626458 31.787949 -2.871232
2007-04-11 09:35:13 51°14.58 2°30.008 9.8882 3.628322 31.786428 -2.871232
2007-04-11 09:36:13 51°14.579 2°30 9.8913 3.629254 31.788128 -2.871232
2007-04-11 09:37:13 51°14.574 2°29.993 9.9021 3.629462 31.788506 -2.871232
2007-04-11 09:38:13 51°14.555 2°30.003 9.9099 3.63029 31.786738 -2.871232
2007-04-11 09:39:13 51°14.531 2°30.029 9.9308 3.629979 31.786991 -2.871232
2007-04-11 09:40:13 51°14.511 2°30.052 9.9745 3.633294 31.779117 -2.871232
2007-04-11 09:41:13 51°14.498 2°30.066 9.9591 3.635676 31.776922 -2.871232
2007-04-11 09:42:13 51°14.49 2°30.076 9.9704 3.634122 31.773268 -2.871232
2007-04-11 09:43:13 51°14.482 2°30.084 9.9908 3.634951 31.767425 -2.871232
2007-04-11 09:44:13 51°14.477 2°30.088 9.9774 3.63609 31.767056 -2.871232
2007-04-11 09:45:13 51°14.472 2°30.089 9.989 3.635572 31.76611 -2.871232
2007-04-11 09:46:13 51°14.466 2°30.089 9.9944 3.63609 31.765423 -2.871232
2007-04-11 09:47:13 51°14.46 2°30.087 10.0182 3.636712 31.763292 -2.871232
2007-04-11 09:48:13 51°14.454 2°30.084 10.0609 3.639405 31.760871 -2.871232
2007-04-11 09:49:13 51°14.448 2°30.079 10.0738 3.642719 31.758779 -2.871232
2007-04-11 09:50:13 51°14.442 2°30.075 10.0801 3.643755 31.759859 -2.871232
2007-04-11 09:51:13 51°14.435 2°30.069 10.0615 3.643548 31.75948 -2.871232
2007-04-11 09:52:13 51°14.428 2°30.061 10.123 3.643548 31.754594 -2.871232
2007-04-11 09:53:13 51°14.421 2°30.054 10.1147 3.646966 31.749457 -2.871232
2007-04-11 09:54:13 51°14.414 2°30.045 10.0642 3.644687 31.742846 -2.871232
2007-04-11 09:55:13 51°14.407 2°30.034 10.0019 3.638161 31.732513 -2.871232
2007-04-11 09:56:13 51°14.399 2°30.023 9.9528 3.631221 31.721407 -2.871232
2007-04-11 09:57:13 51°14.391 2°30.011 9.9032 3.625628 31.712761 -2.871232
2007-04-11 09:58:13 51°14.384 2°29.998 9.8698 3.620345 31.701407 -2.871232
2007-04-11 09:59:13 51°14.377 2°29.986 9.8537 3.618792 31.703453 -2.871232
2007-04-11 10:00:13 51°14.369 2°29.975 9.8312 3.616617 31.702722 -2.871232
2007-04-11 10:01:13 51°14.362 2°29.963 9.8104 3.614752 31.704202 -2.871232
2007-04-11 10:02:13 51°14.354 2°29.95 9.7785 3.613095 31.708526 -2.871232
2007-04-11 10:03:13 51°14.347 2°29.937 9.765 3.611024 31.711276 -2.871232
2007-04-11 10:04:13 51°14.34 2°29.925 9.7661 3.610195 31.713034 -2.871232
2007-04-11 10:05:13 51°14.333 2°29.912 9.7678 3.610195 31.710572 -2.871232
2007-04-11 10:06:13 51°14.325 2°29.898 9.7614 3.610195 31.710572 -2.871232
2007-04-11 10:07:13 51°14.318 2°29.885 9.7588 3.607398 31.687371 -2.871232
2007-04-11 10:08:13 51°14.31 2°29.871 9.7599 3.609263 31.708035 -2.871232
2007-04-11 10:09:14 51°14.303 2°29.857 9.7509 3.608952 31.706643 -2.871232
2007-04-11 10:10:13 51°14.295 2°29.843 9.7457 3.607916 31.70802 -2.871232
2007-04-11 10:11:14 51°14.28 2°29.84 9.7433 3.607709 31.705996 -2.871232
2007-04-11 10:12:14 51°14.28 2°29.895 9.7292 3.606984 31.710411 -2.871232
2007-04-11 10:13:13 51°14.315 2°29.966 9.7303 3.605638 31.707111 -2.871232
2007-04-11 10:14:13 51°14.353 2°30.014 9.731 3.604809 31.689158 -2.871232
2007-04-11 10:15:13 51°14.388 2°30.042 9.7209 3.603566 31.678656 -2.871232
2007-04-11 10:16:13 51°14.417 2°30.054 9.7171 3.597144 31.629854 -2.871232
2007-04-11 10:17:13 51°14.441 2°30.054 9.7155 3.594243 31.603155 -2.871232
2007-04-11 10:18:13 51°14.46 2°30.048 9.7141 3.600148 31.66249 -2.871232
2007-04-11 10:19:13 51°14.476 2°30.036 9.7166 3.600044 31.660657 -2.871232
2007-04-11 10:20:13 51°14.49 2°30.021 9.7248 3.600148 31.655105 -2.871232
2007-04-11 10:21:13 51°14.501 2°30.003 9.7284 3.600148 31.651824 -2.871232
2007-04-11 10:22:13 51°14.51 2°29.983 9.7261 3.600458 31.65158 -2.871232
2007-04-11 10:23:13 51°14.518 2°29.964 9.7174 3.59994 31.65144 -2.871232
2007-04-11 10:24:13 51°14.527 2°29.945 9.7135 3.599008 31.650534 -2.871232
2007-04-11 10:25:13 51°14.569 2°29.929 9.7036 3.598594 31.653048 -2.871232
2007-04-11 10:26:13 51°14.639 2°29.919 9.6988 3.597869 31.651705 -2.871232
2007-04-11 10:27:14 51°14.707 2°29.91 9.6976 3.597455 31.652579 -2.871232
2007-04-11 10:28:14 51°14.755 2°29.89 9.7191 3.597455 31.652579 -2.871232
2007-04-11 10:29:13 51°14.79 2°29.885 9.7445 3.599008 31.649713 -2.871232
2007-04-11 10:30:13 51°14.813 2°29.897 9.7672 3.60108 31.642075 -2.871232
2007-04-11 10:31:13 51°14.828 2°29.915 9.7569 3.603358 31.652034 -2.871232
2007-04-11 10:32:13 51°14.842 2°29.936 9.7473 3.602737 31.65498 -2.871232
2007-04-11 10:33:13 51°14.899 2°30.043 9.7589 3.602323 31.655033 -2.871232
2007-04-11 10:34:13 51°15.03 2°30.282 9.7417 3.601494 31.637928 -2.871232
2007-04-11 10:35:13 51°15.17 2°30.54 9.7266 3.597144 31.61183 -2.871232
2007-04-11 10:36:13 51°15.311 2°30.799 9.7146 3.590929 31.565045 -2.871232
2007-04-11 10:37:14 51°15.456 2°31.061 9.7257 3.585024 31.51392 -2.871232
2007-04-11 10:38:13 51°15.595 2°31.317 9.7678 3.58057 31.44516 -2.871232
2007-04-11 10:39:14 51°15.688 2°31.631 9.7874 3.576737 31.376896 -2.871232
2007-04-11 10:40:13 51°15.742 2°31.956 9.7558 3.573008 31.332455 -2.871232
2007-04-11 10:41:13 51°15.764 2°32.286 9.7241 3.566587 31.315259 -2.871232
2007-04-11 10:42:13 51°15.687 2°32.564 9.7446 3.556436 31.226799 -2.871232
2007-04-11 10:43:13 51°15.519 2°32.741 9.7564 3.545768 31.0954 -2.871232
2007-04-11 10:44:13 51°15.353 2°32.945 9.7669 3.538725 31.017992 -2.871232
2007-04-11 10:45:13 51°15.183 2°33.159 9.718 3.537896 31.031607 -2.871232
2007-04-11 10:46:13 51°15 2°33.336 9.7787 3.538207 31.057151 -2.871232
2007-04-11 10:47:13 51°14.826 2°33.368 9.7305 3.539553 31.001191 -2.871232
2007-04-11 10:48:13 51°14.685 2°33.372 9.7094 3.532407 30.998218 -2.871232
2007-04-11 10:49:13 51°14.642 2°33.235 9.7912 3.532718 30.981178 -2.871232
2007-04-11 10:50:13 51°14.635 2°33.062 9.7255 3.533443 30.964185 -2.871232
2007-04-11 10:51:13 51°14.688 2°32.92 9.7445 3.530957 30.97446 -2.871232
2007-04-11 10:52:13 51°14.771 2°32.873 9.8432 3.535203 30.997356 -2.871232
2007-04-11 10:53:13 51°14.84 2°32.902 9.8659 3.542142 30.973528 -2.871232
2007-04-11 10:54:13 51°14.893 2°32.942 9.9114 3.547009 30.967258 -2.871232
2007-04-11 10:55:13 51°14.939 2°32.999 9.9724 3.546905 30.983813 -2.871232
2007-04-11 10:56:13 51°14.982 2°33.044 9.9874 3.553947 30.976297 -2.871232
2007-04-11 10:57:13 51°15.015 2°33.038 10.0345 3.555397 30.975998 -2.871232
2007-04-11 10:58:13 51°15.026 2°33.015 10.0508 3.559747 30.972727 -2.871232
2007-04-11 10:59:13 51°15.018 2°32.997 9.96 3.559126 30.98103 -2.871232
2007-04-11 11:00:13 51°14.999 2°32.991 9.817 3.550427 31.004389 -2.871232
2007-04-11 11:01:13 51°14.975 2°32.993 9.7279 3.541728 31.025553 -2.871232
2007-04-11 11:02:13 51°14.947 2°32.999 9.6979 3.535722 31.036946 -2.871232
2007-04-11 11:03:13 51°14.919 2°33.003 9.7222 3.533961 31.027022 -2.871232
2007-04-11 11:04:13 51°14.907 2°32.987 9.7191 3.535929 31.021278 -2.871232
2007-04-11 11:05:13 51°14.915 2°32.961 9.7576 3.535618 31.035132 -2.871232
2007-04-11 11:06:13 51°14.935 2°32.956 9.8152 3.539139 31.010791 -2.871232
2007-04-11 11:07:13 51°14.952 2°32.975 9.8907 3.542867 30.993365 -2.871232
2007-04-11 11:08:13 51°14.958 2°33.017 9.942 3.544627 30.98647 -2.871232
2007-04-11 11:09:13 51°14.967 2°33.048 9.9381 3.549391 30.975194 -2.871232
2007-04-11 11:10:13 51°14.97 2°33.056 9.9322 3.550426 30.970878 -2.871232
2007-04-11 11:11:13 51°14.967 2°33.057 9.8981 3.548355 30.978716 -2.871232
2007-04-11 11:12:13 51°14.962 2°33.054 9.8706 3.546284 30.98018 -2.871232
2007-04-11 11:13:13 51°14.955 2°33.049 9.8413 3.543177 30.982785 -2.871232
2007-04-11 11:14:13 51°14.948 2°33.041 9.8834 3.542038 30.979718 -2.871232
2007-04-11 11:15:13 51°14.941 2°33.03 9.9698 3.546698 30.968234 -2.871232
2007-04-11 11:16:13 51°14.934 2°33.013 9.9841 3.552394 30.966036 -2.871232
2007-04-11 11:17:13 51°14.927 2°32.988 9.9492 3.553222 30.968483 -2.871232
2007-04-11 11:18:13 51°14.922 2°32.956 9.8308 3.548148 30.984689 -2.871232
2007-04-11 11:19:13 51°14.912 2°32.951 9.7633 3.541624 31.009313 -2.871232
2007-04-11 11:20:13 51°14.915 2°32.966 9.7855 3.537068 31.01069 -2.871232
2007-04-11 11:21:13 51°14.939 2°32.98 9.8914 3.538828 30.991737 -2.871232
2007-04-11 11:22:13 51°14.961 2°33.007 9.8956 3.549494 30.969021 -2.871232
2007-04-11 11:23:13 51°14.964 2°33.031 9.9273 3.546491 30.975802 -2.871232
2007-04-11 11:24:13 51°14.961 2°33.034 9.9238 3.54908 30.966602 -2.871232
2007-04-11 11:25:13 51°14.958 2°33.028 9.9654 3.548044 30.970119 -2.871232
2007-04-11 11:26:13 51°14.956 2°33.021 10.053 3.552083 30.959844 -2.871232
2007-04-11 11:27:13 51°14.954 2°33.011 10.116 3.559436 30.950667 -2.871232
2007-04-11 11:28:13 51°14.952 2°32.999 10.1887 3.564718 30.946934 -2.871232
2007-04-11 11:29:13 51°14.95 2°32.986 10.2284 3.570828 30.943302 -2.871232
2007-04-11 11:30:13 51°14.948 2°32.971 10.2426 3.57321 30.943315 -2.871232
2007-04-11 11:31:13 51°14.945 2°32.955 10.2496 3.574245 30.942223 -2.871232
2007-04-11 11:32:13 51°14.942 2°32.938 10.2531 3.57466 30.941471 -2.871232
2007-04-11 11:33:13 51°14.938 2°32.92 10.2445 3.574763 30.941678 -2.871232
2007-04-11 11:34:13 51°14.934 2°32.901 10.2244 3.573624 30.942562 -2.871232
2007-04-11 11:35:13 51°14.931 2°32.882 10.1933 3.571967 30.944785 -2.871232
2007-04-11 11:36:13 51°14.927 2°32.862 10.1609 3.569274 30.944946 -2.871232
2007-04-11 11:37:13 51°14.922 2°32.841 10.1514 3.566582 30.946694 -2.871232
2007-04-11 11:38:13 51°14.917 2°32.821 10.1643 3.566271 30.945283 -2.871232
2007-04-11 11:39:13 51°14.912 2°32.8 10.2015 3.567824 30.942844 -2.871232
2007-04-11 11:40:13 51°14.907 2°32.78 10.2252 3.570621 30.938938 -2.871232
2007-04-11 11:41:13 51°14.901 2°32.759 10.2463 3.572278 30.939876 -2.871232
2007-04-11 11:42:13 51°14.896 2°32.736 10.2462 3.573831 30.940607 -2.871232
2007-04-11 11:43:13 51°14.89 2°32.714 10.304 3.575281 30.937977 -2.871232
2007-04-11 11:44:13 51°14.886 2°32.691 10.3104 3.579734 30.934255 -2.871232
2007-04-11 11:45:13 51°14.88 2°32.667 10.2411 3.578388 30.944964 -2.871232
2007-04-11 11:46:13 51°14.874 2°32.641 10.2162 3.573935 30.94713 -2.871232
2007-04-11 11:47:13 51°14.867 2°32.616 10.1978 3.571656 30.947326 -2.871232
2007-04-11 11:48:13 51°14.859 2°32.589 10.1913 3.57031 30.947802 -2.871232
2007-04-11 11:49:13 51°14.852 2°32.565 10.1585 3.569689 30.951308 -2.871232
2007-04-11 11:50:13 51°14.849 2°32.645 10.0636 3.565857 30.957127 -2.871232
2007-04-11 11:51:14 51°14.782 2°32.925 9.8342 3.556329 30.971488 -2.871232
2007-04-11 11:52:14 51°14.689 2°33.231 9.9047 3.540795 30.980442 -2.871232
2007-04-11 11:53:14 51°14.599 2°33.542 9.8743 3.544005 30.942126 -2.871232
2007-04-11 11:54:14 51°14.512 2°33.854 9.787 3.536652 30.928217 -2.871232
2007-04-11 11:55:13 51°14.427 2°34.159 9.8732 3.528263 30.870681 -2.871232
2007-04-11 11:56:14 51°14.339 2°34.476 10.0285 3.525362 30.763052 -2.871232
2007-04-11 11:57:14 51°14.255 2°34.788 9.9775 3.532093 30.715133 -2.871232
2007-04-11 11:58:14 51°14.171 2°35.097 10.2746 3.538823 30.638626 -2.871232
2007-04-11 11:59:14 51°14.09 2°35.4 10.2616 3.532401 30.546492 -2.871232
2007-04-11 12:00:13 51°14.009 2°35.698 10.2871 3.525565 30.423458 -2.871232
2007-04-11 12:01:14 51°13.913 2°36 10.1999 3.51697 30.402284 -2.871232
2007-04-11 12:02:14 51°13.816 2°36.296 10.0845 3.51117 30.381526 -2.871232
2007-04-11 12:03:14 51°13.72 2°36.591 10.0853 3.500194 30.396481 -2.871232
2007-04-11 12:04:13 51°13.626 2°36.882 10.0391 3.496776 30.323107 -2.871232
2007-04-11 12:05:14 51°13.52 2°37.174 9.9786 3.492324 30.346328 -2.871232
2007-04-11 12:06:14 51°13.349 2°37.344 9.9793 3.491392 30.352926 -2.871232
2007-04-11 12:07:14 51°13.124 2°37.367 9.9358 3.486836 30.336245 -2.871232
2007-04-11 12:08:14 51°12.892 2°37.392 10.0787 3.47358 30.202885 -2.871232
2007-04-11 12:09:13 51°12.663 2°37.419 10.0335 3.48145 30.196552 -2.871232
2007-04-11 12:10:13 51°12.431 2°37.44 10.2513 3.486006 30.246606 -2.871232
2007-04-11 12:11:13 51°12.224 2°37.273 10.2078 3.49957 30.216148 -2.871232
2007-04-11 12:12:14 51°12.036 2°37.023 10.2266 3.49895 30.258793 -2.871232
2007-04-11 12:13:14 51°11.825 2°36.844 10.2326 3.499674 30.233326 -2.871232
2007-04-11 12:14:14 51°11.606 2°36.687 10.1924 3.495428 30.198789 -2.871232
2007-04-11 12:15:14 51°11.385 2°36.533 10.1984 3.488697 30.15966 -2.871232
2007-04-11 12:16:14 51°11.164 2°36.378 10.2737 3.487247 30.138059 -2.871232
2007-04-11 12:17:14 51°10.943 2°36.226 10.2707 3.486729 30.070921 -2.871232
2007-04-11 12:18:14 51°10.722 2°36.074 10.3075 3.484554 30.043226 -2.871232
2007-04-11 12:19:14 51°10.501 2°35.925 10.3975 3.49377 30.088498 -2.871232
2007-04-11 12:20:14 51°10.276 2°35.823 10.3574 3.507336 30.174436 -2.871232
2007-04-11 12:21:14 51°10.041 2°35.779 10.3633 3.511168 30.234819 -2.871232
2007-04-11 12:22:14 51°9.805 2°35.72 10.4219 3.510132 30.208036 -2.871232
2007-04-11 12:23:14 51°9.573 2°35.661 10.7409 3.511684 30.080804 -2.871232
2007-04-11 12:24:14 51°9.35 2°35.531 10.5508 3.525249 30.060939 -2.871232
2007-04-11 12:25:13 51°9.132 2°35.388 10.6449 3.520693 30.086645 -2.871232
2007-04-11 12:26:14 51°8.908 2°35.243 10.8141 3.527424 30.089086 -2.871232
2007-04-11 12:27:14 51°8.768 2°35.161 11.2119 3.533117 29.918889 -2.871232
2007-04-11 12:28:14 51°8.702 2°35.138 11.0548 3.549375 29.869128 -2.871232
2007-04-11 12:29:13 51°8.677 2°35.131 10.7752 3.539435 30.001472 -2.871232
2007-04-11 12:30:14 51°8.658 2°35.12 10.6795 3.527942 30.079618 -2.871232
2007-04-11 12:31:14 51°8.643 2°35.106 10.6142 3.524317 30.086152 -2.871232
2007-04-11 12:32:14 51°8.63 2°35.089 10.5493 3.521108 30.127774 -2.871232
2007-04-11 12:33:14 51°8.618 2°35.068 10.5496 3.518519 30.133603 -2.871232
2007-04-11 12:34:14 51°8.606 2°35.045 10.558 3.517898 30.131503 -2.871232
2007-04-11 12:35:14 51°8.595 2°35.02 10.5772 3.518001 30.122595 -2.871232
2007-04-11 12:36:13 51°8.585 2°34.993 10.593 3.518829 30.113738 -2.871232
2007-04-11 12:37:14 51°8.573 2°34.965 10.6304 3.519554 30.110744 -2.871232
2007-04-11 12:38:14 51°8.566 2°34.955 10.6626 3.522039 30.097897 -2.871232
2007-04-11 12:39:13 51°8.575 2°34.954 10.6475 3.524007 30.099874 -2.871232
2007-04-11 12:40:14 51°8.603 2°34.952 10.6417 3.523075 30.111513 -2.871232
2007-04-11 12:41:13 51°8.637 2°34.96 10.5446 3.522868 30.117897 -2.871232
2007-04-11 12:42:13 51°8.756 2°35.027 10.5833 3.518727 30.169102 -2.871232
2007-04-11 12:43:13 51°8.951 2°35.122 10.9083 3.519761 30.11575 -2.871232
2007-04-11 12:44:14 51°9.152 2°35.224 11.2036 3.53902 29.906492 -2.871232
2007-04-11 12:45:13 51°9.35 2°35.32 10.8629 3.549894 29.926593 -2.871232
2007-04-11 12:46:13 51°9.55 2°35.418 10.4546 3.526078 30.102833 -2.871232
2007-04-11 12:47:13 51°9.751 2°35.514 10.6612 3.504435 30.078793 -2.871232
2007-04-11 12:48:13 51°9.95 2°35.611 10.9842 3.514063 29.888255 -2.871232
2007-04-11 12:49:13 51°10.146 2°35.719 10.5694 3.533118 29.999718 -2.871232
2007-04-11 12:50:13 51°10.341 2°35.83 10.4393 3.520591 30.172344 -2.871232
2007-04-11 12:51:14 51°10.541 2°35.942 10.4199 3.513446 30.192152 -2.871232
2007-04-11 12:52:14 51°10.732 2°36.059 10.3534 3.5092 30.152427 -2.871232
2007-04-11 12:53:14 51°10.92 2°36.189 10.2848 3.495531 30.106852 -2.871232
2007-04-11 12:54:14 51°11.108 2°36.32 10.2598 3.489835 30.102183 -2.871232
2007-04-11 12:55:14 51°11.295 2°36.45 10.2897 3.490664 30.111646 -2.871232
2007-04-11 12:56:14 51°11.481 2°36.584 10.2569 3.491699 30.11542 -2.871232
2007-04-11 12:57:14 51°11.667 2°36.719 10.2084 3.490354 30.135542 -2.871232
2007-04-11 12:58:14 51°11.854 2°36.855 10.2213 3.491079 30.172492 -2.871232
2007-04-11 12:59:14 51°12.04 2°36.993 10.2251 3.496878 30.204982 -2.871232
2007-04-11 13:00:14 51°12.228 2°37.131 10.1784 3.497914 30.225701 -2.871232
2007-04-11 13:01:14 51°12.416 2°37.268 10.1236 3.492529 30.215705 -2.871232
2007-04-11 13:02:14 51°12.582 2°37.386 10.1393 3.487455 30.21796 -2.871232
2007-04-11 13:03:14 51°12.7 2°37.468 10.1789 3.493668 30.23282 -2.871232
2007-04-11 13:04:14 51°12.799 2°37.533 10.1413 3.497086 30.260997 -2.871232
2007-04-11 13:05:14 51°12.863 2°37.568 10.1403 3.497086 30.283439 -2.871232
2007-04-11 13:06:14 51°12.906 2°37.594 10.0842 3.497086 30.302814 -2.871232
2007-04-11 13:07:14 51°12.933 2°37.615 10.0669 3.494187 30.313723 -2.871232
2007-04-11 13:08:14 51°12.944 2°37.613 10.1349 3.49398 30.314837 -2.871232
2007-04-11 13:09:14 51°12.95 2°37.593 10.2116 3.501435 30.297346 -2.871232
2007-04-11 13:10:14 51°12.952 2°37.565 10.2709 3.505681 30.29555 -2.871232
2007-04-11 13:11:14 51°12.952 2°37.534 10.2435 3.508477 30.293773 -2.871232
2007-04-11 13:12:13 51°12.961 2°37.494 10.2646 3.506924 30.298966 -2.871232
2007-04-11 13:13:13 51°12.964 2°37.399 10.2013 3.508995 30.297963 -2.871232
2007-04-11 13:14:13 51°12.916 2°37.317 10.1084 3.503817 30.324092 -2.871232
2007-04-11 13:15:14 51°12.857 2°37.328 10.076 3.499158 30.341366 -2.871232
2007-04-11 13:16:13 51°12.846 2°37.388 10.0681 3.496155 30.347442 -2.871232
2007-04-11 13:17:14 51°12.879 2°37.454 10.0783 3.495327 30.341018 -2.871232
2007-04-11 13:18:14 51°12.923 2°37.534 10.1541 3.497398 30.329863 -2.871232
2007-04-11 13:19:13 51°12.965 2°37.619 10.16 3.503507 30.323433 -2.871232
2007-04-11 13:20:13 51°13 2°37.704 10.2102 3.506303 30.320848 -2.871232
2007-04-11 13:21:14 51°13.024 2°37.721 10.2951 3.508891 30.320926 -2.871232
2007-04-11 13:22:13 51°13.018 2°37.7 10.1598 3.511584 30.328184 -2.871232
2007-04-11 13:23:14 51°13.013 2°37.705 10.0447 3.503921 30.358445 -2.871232
2007-04-11 13:24:14 51°13 2°37.71 10.1352 3.498123 30.367953 -2.871232
2007-04-11 13:25:14 51°12.988 2°37.714 10.1751 3.505682 30.337345 -2.871232
2007-04-11 13:26:14 51°12.981 2°37.714 10.1975 3.505992 30.342655 -2.871232
2007-04-11 13:27:14 51°12.977 2°37.71 10.2567 3.508477 30.331654 -2.871232
2007-04-11 13:28:14 51°12.977 2°37.698 10.2903 3.512309 30.324311 -2.871232
2007-04-11 13:29:14 51°12.979 2°37.676 10.3018 3.513655 30.323303 -2.871232
2007-04-11 13:30:13 51°12.982 2°37.642 10.3001 3.515519 30.318766 -2.871232
2007-04-11 13:31:14 51°12.982 2°37.596 10.2649 3.515001 30.325386 -2.871232
2007-04-11 13:32:13 51°12.978 2°37.543 10.1433 3.511688 30.342325 -2.871232
2007-04-11 13:33:13 51°12.966 2°37.486 10.0737 3.504439 30.376636 -2.871232
2007-04-11 13:34:14 51°12.948 2°37.429 10.0377 3.500298 30.387347 -2.871232
2007-04-11 13:35:14 51°12.923 2°37.38 10.0459 3.498227 30.39155 -2.871232
2007-04-11 13:36:14 51°12.881 2°37.352 10.0306 3.499469 30.381702 -2.871232
2007-04-11 13:37:14 51°12.83 2°37.375 9.9807 3.496881 30.40588 -2.871232
2007-04-11 13:38:14 51°12.796 2°37.436 10.1201 3.496881 30.384809 -2.871232
2007-04-11 13:39:14 51°12.76 2°37.584 10.1149 3.503714 30.359561 -2.871232
2007-04-11 13:40:14 51°12.686 2°37.843 10.0482 3.500919 30.366084 -2.871232
2007-04-11 13:41:14 51°12.584 2°38.14 10.2635 3.497915 30.34495 -2.871232
2007-04-11 13:42:14 51°12.526 2°38.462 10.3039 3.515001 30.292225 -2.871232
2007-04-11 13:43:14 51°12.492 2°38.787 10.5401 3.510858 30.291123 -2.871232
2007-04-11 13:44:14 51°12.456 2°39.036 10.5052 3.522247 30.153048 -2.871232
2007-04-11 13:45:14 51°12.468 2°39.209 10.5509 3.512513 30.152685 -2.871232
2007-04-11 13:46:14 51°12.515 2°39.299 10.4893 3.516034 30.133576 -2.871232
2007-04-11 13:47:14 51°12.551 2°39.369 10.4222 3.513238 30.151192 -2.871232
2007-04-11 13:48:14 51°12.575 2°39.39 10.4873 3.510132 30.161314 -2.871232
2007-04-11 13:49:14 51°12.591 2°39.384 10.5553 3.515723 30.142813 -2.871232
2007-04-11 13:50:14 51°12.602 2°39.397 10.3442 3.51707 30.161726 -2.871232
2007-04-11 13:51:14 51°12.599 2°39.408 10.3248 3.505887 30.201236 -2.871232
2007-04-11 13:52:14 51°12.588 2°39.413 10.2941 3.503816 30.200634 -2.871232
2007-04-11 13:53:14 51°12.572 2°39.406 10.3352 3.50247 30.204664 -2.871232
2007-04-11 13:54:14 51°12.557 2°39.389 10.3507 3.505472 30.1896 -2.871232
2007-04-11 13:55:14 51°12.54 2°39.367 10.2794 3.505265 30.201439 -2.871232
2007-04-11 13:56:14 51°12.524 2°39.345 10.2629 3.501434 30.213213 -2.871232
2007-04-11 13:57:14 51°12.507 2°39.323 10.2422 3.500502 30.216605 -2.871232
2007-04-11 13:58:14 51°12.489 2°39.303 10.2267 3.499053 30.221973 -2.871232
2007-04-11 13:59:14 51°12.469 2°39.305 10.2822 3.498224 30.222511 -2.871232
2007-04-11 14:00:14 51°12.47 2°39.336 10.2878 3.502055 30.202237 -2.871232
2007-04-11 14:01:14 51°12.506 2°39.343 10.3016 3.502159 30.206305 -2.871232
2007-04-11 14:02:14 51°12.544 2°39.365 10.2893 3.504333 30.197135 -2.871232
2007-04-11 14:03:14 51°12.56 2°39.39 10.2604 3.501434 30.206288 -2.871232
2007-04-11 14:04:14 51°12.57 2°39.396 10.2492 3.500917 30.221343 -2.871232
2007-04-11 14:05:14 51°12.575 2°39.397 10.2388 3.50071 30.220129 -2.871232
2007-04-11 14:06:14 51°12.573 2°39.395 10.1988 3.499467 30.233654 -2.871232
2007-04-11 14:07:14 51°12.567 2°39.389 10.1944 3.49781 30.242456 -2.871232
2007-04-11 14:08:14 51°12.556 2°39.382 10.2212 3.498018 30.242899 -2.871232
2007-04-11 14:09:14 51°12.544 2°39.375 10.2593 3.500192 30.232121 -2.871232
2007-04-11 14:10:14 51°12.535 2°39.375 10.2559 3.501849 30.231042 -2.871232
2007-04-11 14:11:14 51°12.537 2°39.376 10.252 3.501849 30.233354 -2.871232
2007-04-11 14:12:14 51°12.547 2°39.377 10.2531 3.501849 30.231812 -2.871232
2007-04-11 14:13:14 51°12.558 2°39.389 10.2264 3.501331 30.238412 -2.871232
2007-04-11 14:14:14 51°12.565 2°39.393 10.2619 3.500089 30.240382 -2.871232
2007-04-11 14:15:14 51°12.568 2°39.387 10.2773 3.502366 30.226758 -2.871232
2007-04-11 14:16:14 51°12.569 2°39.384 10.2636 3.503195 30.223142 -2.871232
2007-04-11 14:17:14 51°12.566 2°39.387 10.1991 3.501124 30.235657 -2.871232
2007-04-11 14:18:14 51°12.558 2°39.39 10.2165 3.498121 30.246981 -2.871232
2007-04-11 14:19:14 51°12.546 2°39.386 10.2801 3.499674 30.234097 -2.871232
2007-04-11 14:20:14 51°12.532 2°39.378 10.3418 3.503712 30.212711 -2.871232
2007-04-11 14:21:14 51°12.529 2°39.406 10.3575 3.507129 30.201598 -2.871232
2007-04-11 14:22:14 51°12.592 2°39.37 10.3527 3.507647 30.204243 -2.871232
2007-04-11 14:23:14 51°12.679 2°39.102 10.3853 3.507958 30.1911 -2.871232
2007-04-11 14:24:14 51°12.765 2°38.76 10.2598 3.50889 30.195401 -2.871232
2007-04-11 14:25:14 51°12.824 2°38.398 10.2745 3.502263 30.248116 -2.871232
2007-04-11 14:26:14 51°12.877 2°38.03 10.3108 3.50392 30.223155 -2.871232
2007-04-11 14:27:14 51°12.923 2°37.744 10.549 3.512515 30.238465 -2.871232
2007-04-11 14:28:14 51°12.939 2°37.673 10.1523 3.524528 30.310921 -2.871232
2007-04-11 14:29:17 51°12.945 2°37.65 9.9803 3.505475 30.39749 -2.871232
2007-04-11 14:30:15 51°12.989 2°37.686 10.1315 3.497917 30.44246 -2.871232
2007-04-11 14:31:14 51°13.024 2°37.727 10.3185 3.50827 30.345155 -2.871232
2007-04-11 14:32:14 51°13.037 2°37.726 10.4527 3.52111 30.312903 -2.871232
2007-04-11 14:33:14 51°13.044 2°37.727 10.4625 3.527427 30.31707 -2.871232
2007-04-11 14:34:14 51°13.044 2°37.731 10.483 3.529498 30.313012 -2.871232
2007-04-11 14:35:14 51°13.038 2°37.737 10.4211 3.529498 30.314548 -2.871232
2007-04-11 14:36:14 51°13.026 2°37.734 10.3412 3.524217 30.32257 -2.871232
2007-04-11 14:37:14 51°13.013 2°37.719 10.2947 3.519868 30.340328 -2.871232
2007-04-11 14:38:14 51°12.998 2°37.704 10.2271 3.516555 30.354945 -2.871232
2007-04-11 14:39:14 51°12.967 2°37.702 10.2588 3.513448 30.370052 -2.871232
2007-04-11 14:40:14 51°12.928 2°37.69 10.4977 3.52546 30.331359 -2.871232
2007-04-11 14:41:14 51°12.9 2°37.675 10.4855 3.535091 30.337137 -2.871232
2007-04-11 14:42:14 51°12.876 2°37.656 10.6377 3.534573 30.345256 -2.871232
2007-04-11 14:43:14 51°12.852 2°37.637 10.787 3.541303 30.231152 -2.871232
2007-04-11 14:44:14 51°12.831 2°37.616 10.8246 3.546791 30.201888 -2.871232
2007-04-11 14:45:14 51°12.81 2°37.594 10.8247 3.547412 30.187318 -2.871232
2007-04-11 14:46:13 51°12.792 2°37.573 10.7614 3.546169 30.192985 -2.871232
2007-04-11 14:47:14 51°12.773 2°37.55 10.6751 3.543477 30.217558 -2.871232
2007-04-11 14:48:14 51°12.756 2°37.529 10.5864 3.539025 30.253703 -2.871232
2007-04-11 14:49:14 51°12.736 2°37.508 10.6022 3.535193 30.256984 -2.871232
2007-04-11 14:50:14 51°12.698 2°37.472 10.6948 3.534468 30.242467 -2.871232
2007-04-11 14:51:14 51°12.674 2°37.389 10.6595 3.535814 30.189015 -2.871232
2007-04-11 14:52:14 51°12.69 2°37.307 10.6673 3.532189 30.18885 -2.871232
2007-04-11 14:53:14 51°12.727 2°37.28 10.5352 3.537781 30.198545 -2.871232
2007-04-11 14:54:14 51°12.759 2°37.303 10.6453 3.528049 30.337609 -2.871232
2007-04-11 14:55:13 51°12.793 2°37.35 10.8235 3.541096 30.232991 -2.871232
2007-04-11 14:56:14 51°12.83 2°37.406 10.7529 3.550105 30.190055 -2.871232
2007-04-11 14:57:14 51°12.867 2°37.465 10.872 3.545756 30.229254 -2.871232
2007-04-11 14:58:14 51°12.901 2°37.514 10.9962 3.552486 30.15741 -2.871232
2007-04-11 14:59:14 51°12.922 2°37.542 10.9986 3.55756 30.116415 -2.871232
2007-04-11 15:00:14 51°12.934 2°37.556 10.8741 3.559425 30.173789 -2.871232
2007-04-11 15:01:13 51°12.941 2°37.561 10.7115 3.554662 30.258848 -2.871232
2007-04-11 15:02:14 51°12.944 2°37.556 10.586 3.547 30.308773 -2.871232
2007-04-11 15:03:14 51°12.945 2°37.546 10.5004 3.541615 30.333302 -2.871232
2007-04-11 15:04:14 51°12.943 2°37.531 10.4948 3.536851 30.356213 -2.871232
2007-04-11 15:05:14 51°12.938 2°37.513 10.4974 3.536334 30.353584 -2.871232
2007-04-11 15:06:14 51°12.93 2°37.492 10.5235 3.537162 30.348423 -2.871232
2007-04-11 15:07:14 51°12.92 2°37.472 10.4493 3.538094 30.345787 -2.871232
2007-04-11 15:08:14 51°12.909 2°37.453 10.3311 3.532088 30.386182 -2.871232
2007-04-11 15:09:13 51°12.899 2°37.437 10.3199 3.526704 30.408825 -2.871232
2007-04-11 15:10:13 51°12.888 2°37.419 10.2823 3.524426 30.418742 -2.871232
2007-04-11 15:11:13 51°12.877 2°37.402 10.2711 3.52339 30.416565 -2.871232
2007-04-11 15:12:13 51°12.866 2°37.385 10.343 3.523183 30.410708 -2.871232
2007-04-11 15:13:14 51°12.87 2°37.344 10.4353 3.527117 30.359511 -2.871232
2007-04-11 15:14:13 51°12.902 2°37.321 10.4424 3.530328 30.376305 -2.871232
2007-04-11 15:15:13 51°12.925 2°37.318 10.5106 3.536023 30.36753 -2.871232
2007-04-11 15:16:13 51°12.938 2°37.31 10.5379 3.539441 30.370125 -2.871232
2007-04-11 15:17:13 51°12.946 2°37.298 10.5756 3.542444 30.362641 -2.871232
2007-04-11 15:18:13 51°12.957 2°37.286 10.5963 3.544826 30.361531 -2.871232
2007-04-11 15:19:13 51°12.978 2°37.308 10.5863 3.546483 30.372688 -2.871232
2007-04-11 15:20:13 51°12.979 2°37.37 10.5802 3.547725 30.378371 -2.871232
2007-04-11 15:21:13 51°12.975 2°37.454 10.5847 3.547726 30.392942 -2.871232
2007-04-11 15:22:13 51°12.97 2°37.516 10.6121 3.547933 30.38034 -2.871232
2007-04-11 15:23:13 51°12.963 2°37.539 10.6011 3.548243 30.370267 -2.871232
2007-04-11 15:24:13 51°12.957 2°37.548 10.5602 3.546379 30.378603 -2.871232
2007-04-11 15:25:13 51°12.952 2°37.553 10.5408 3.543686 30.37063 -2.871232
2007-04-11 15:26:13 51°12.946 2°37.553 10.529 3.541719 30.374159 -2.871232
2007-04-11 15:27:13 51°12.939 2°37.552 10.5171 3.540166 30.370885 -2.871232
2007-04-11 15:28:13 51°12.932 2°37.549 10.5129 3.539337 30.365298 -2.871232
2007-04-11 15:29:14 51°12.924 2°37.544 10.4995 3.538405 30.365637 -2.871232
2007-04-11 15:30:13 51°12.914 2°37.538 10.4933 3.537887 30.366849 -2.871232
2007-04-11 15:31:13 51°12.903 2°37.531 10.4905 3.537162 30.366089 -2.871232
2007-04-11 15:32:13 51°12.892 2°37.527 10.4922 3.536852 30.365434 -2.871232
2007-04-11 15:33:13 51°12.885 2°37.544 10.491 3.536541 30.360167 -2.871232
2007-04-11 15:34:13 51°12.891 2°37.561 10.4646 3.535091 30.356338 -2.871232
2007-04-11 15:35:13 51°12.896 2°37.564 10.4313 3.53302 30.361963 -2.871232
2007-04-11 15:36:13 51°12.9 2°37.559 10.5136 3.532399 30.363729 -2.871232
2007-04-11 15:37:13 51°12.902 2°37.549 10.6389 3.538197 30.31688 -2.871232
2007-04-11 15:38:13 51°12.902 2°37.535 10.6941 3.543789 30.288233 -2.871232
2007-04-11 15:39:13 51°12.9 2°37.521 10.712 3.546378 30.280771 -2.871232
2007-04-11 15:40:13 51°12.896 2°37.506 10.8 3.547827 30.264062 -2.871232
2007-04-11 15:41:13 51°12.891 2°37.49 10.7527 3.552073 30.236654 -2.871232
2007-04-11 15:42:13 51°12.884 2°37.473 10.7039 3.549795 30.28498 -2.871232
2007-04-11 15:43:13 51°12.876 2°37.458 10.6996 3.548346 30.291042 -2.871232
2007-04-11 15:44:13 51°12.876 2°37.436 10.5947 3.546585 30.321639 -2.871232
2007-04-11 15:45:13 51°12.899 2°37.415 10.4575 3.54234 30.36856 -2.871232
2007-04-11 15:46:13 51°12.928 2°37.431 10.4287 3.537888 30.412255 -2.871232
2007-04-11 15:47:13 51°12.941 2°37.46 10.4159 3.539234 30.435903 -2.871232
2007-04-11 15:48:13 51°12.941 2°37.491 10.3823 3.540063 30.463123 -2.871232
2007-04-11 15:49:14 51°12.936 2°37.521 10.3919 3.539132 30.482835 -2.871232
2007-04-11 15:50:13 51°12.929 2°37.548 10.5723 3.539959 30.432022 -2.871232
2007-04-11 15:51:13 51°12.922 2°37.575 10.635 3.545965 30.361634 -2.871232
2007-04-11 15:52:13 51°12.914 2°37.598 10.6206 3.547725 30.343153 -2.871232
2007-04-11 15:53:14 51°12.905 2°37.612 10.5838 3.546379 30.356381 -2.871232
2007-04-11 15:54:14 51°12.897 2°37.618 10.5555 3.544515 30.367008 -2.871232
2007-04-11 15:55:14 51°12.888 2°37.621 10.5311 3.542962 30.378312 -2.871232
2007-04-11 15:56:14 51°12.88 2°37.621 10.5251 3.54234 30.381611 -2.871232
2007-04-11 15:57:14 51°12.873 2°37.629 10.5163 3.541926 30.38458 -2.871232
2007-04-11 15:58:13 51°12.876 2°37.675 10.5968 3.540683 30.379658 -2.871232
2007-04-11 15:59:14 51°12.887 2°37.75 10.6762 3.540164 30.285879 -2.871232
2007-04-11 16:00:13 51°12.895 2°37.864 10.7051 3.54006 30.220135 -2.871232
2007-04-11 16:01:13 51°12.931 2°38.144 10.7481 3.538195 30.17287 -2.871232
2007-04-11 16:02:14 51°12.975 2°38.483 10.5916 3.529185 30.115599 -2.871232
2007-04-11 16:03:13 51°13.017 2°38.812 10.5399 3.51883 30.15255 -2.871232
2007-04-11 16:04:13 51°13.06 2°39.147 10.478 3.515413 30.140619 -2.871232
2007-04-11 16:05:14 51°13.102 2°39.489 10.4452 3.511892 30.139133 -2.871232
2007-04-11 16:06:13 51°13.14 2°39.82 10.5073 3.506507 30.122936 -2.871232
2007-04-11 16:07:14 51°13.182 2°40.161 10.6694 3.509301 29.996016 -2.871232
2007-04-11 16:08:14 51°13.221 2°40.497 10.6908 3.514168 29.997566 -2.871232
2007-04-11 16:09:13 51°13.261 2°40.828 10.8988 1.104806 7.181878 -2.871232
2007-04-11 16:10:14 51°13.305 2°41.172 12.1044 0.660814 4.141562 -2.871232
2007-04-11 16:11:14 51°13.347 2°41.512 11.1137 0.578127 3.589902 -2.871232
2007-04-11 16:12:13 51°13.389 2°41.846 11.8893 0.551253 3.415931 -2.871232
2007-04-11 16:13:13 51°13.427 2°42.189 11.9883 0.538177 3.33328 -2.871232
2007-04-11 16:14:14 51°13.462 2°42.539 12.2045 0.530558 3.282963 -2.871232
2007-04-11 16:15:13 51°13.497 2°42.879 12.4104 0.526131 3.253482 -2.871232
2007-04-11 16:16:14 51°13.534 2°43.23 12.45 0.522012 3.226463 -2.871232
2007-04-11 16:17:14 51°13.57 2°43.576 12.7693 0.518923 3.206443 -2.871232
2007-04-11 16:18:13 51°13.606 2°43.916 12.9592 0.516349 3.191081 -2.871232
2007-04-11 16:19:14 51°13.644 2°44.271 13.1185 0.513981 3.177994 -2.871232
2007-04-11 16:20:14 51°13.694 2°44.618 13.2375 0.512128 3.168882 -2.871232
2007-04-11 16:21:14 51°13.746 2°44.963 13.3252 0.510584 3.161663 -2.871232
2007-04-11 16:22:13 51°13.794 2°45.301 13.4337 0.508834 3.153535 -2.871232
2007-04-11 16:23:14 51°13.845 2°45.65 13.597 0.507804 3.148906 -2.871232
2007-04-11 16:24:13 51°13.894 2°45.986 13.7338 0.506775 3.143153 -2.871232
2007-04-11 16:25:13 51°13.943 2°46.325 13.8418 0.505848 3.137684 -2.871232
2007-04-11 16:26:14 51°13.985 2°46.673 13.9693 0.505024 3.13237 -2.871232
2007-04-11 16:27:14 51°14.023 2°47.016 14.076 0.504098 3.126048 -2.871232
2007-04-11 16:28:14 51°14.06 2°47.361 14.1918 0.503583 3.12258 -2.871232
2007-04-11 16:29:13 51°14.1 2°47.696 14.2763 0.502965 3.118497 -2.871232
2007-04-11 16:30:14 51°14.139 2°48.042 14.3838 0.502553 3.11682 -2.871232
2007-04-11 16:31:13 51°14.175 2°48.379 14.4785 0.501936 3.113062 -2.871232
2007-04-11 16:32:14 51°14.213 2°48.727 14.5553 0.501318 3.109044 -2.871232
2007-04-11 16:33:14 51°14.25 2°49.07 14.6422 0.501009 3.107133 -2.871232
2007-04-11 16:34:14 51°14.288 2°49.412 14.7265 0.500803 3.106162 -2.871232
2007-04-11 16:35:14 51°14.325 2°49.755 14.8036 0.500597 3.105191 -2.871232
2007-04-11 16:36:14 51°14.362 2°50.099 14.8794 0.500185 3.102924 -2.871232
2007-04-11 16:37:14 51°14.399 2°50.444 14.9568 0.500083 3.102633 -2.871232
2007-04-11 16:38:14 51°14.435 2°50.788 15.0359 0.499774 3.101111 -2.871232
2007-04-11 16:39:14 51°14.472 2°51.133 15.1145 0.499362 3.098842 -2.871232
2007-04-11 16:40:13 51°14.507 2°51.472 15.1924 0.499156 3.09787 -2.871232
2007-04-11 16:41:14 51°14.545 2°51.822 15.2655 0.498847 3.096282 -2.871232
2007-04-11 16:42:14 51°14.581 2°52.167 15.3412 0.498744 3.095925 -2.871232
2007-04-11 16:43:14 51°14.605 2°52.516 15.4205 0.498435 3.094336 -2.871232
2007-04-11 16:44:14 51°14.613 2°52.869 15.4974 0.498229 3.093363 -2.871232
2007-04-11 16:45:14 51°14.605 2°53.224 15.5715 0.49792 3.091644 -2.871232
2007-04-11 16:46:14 51°14.586 2°53.579 15.6367 0.497509 3.089308 -2.871232
2007-04-11 16:47:14 51°14.541 2°53.93 15.7005 0.497303 3.088269 -2.871232
2007-04-11 16:48:14 51°14.492 2°54.276 15.7749 0.496994 3.086484 -2.871232
2007-04-11 16:49:14 51°14.442 2°54.626 15.8278 0.496891 3.086127 -2.871232
2007-04-11 16:50:14 51°14.375 2°54.976 15.8966 0.496582 3.084342 -2.871232
2007-04-11 16:51:14 51°14.251 2°55.273 15.9705 0.496479 3.083854 -2.871232
2007-04-11 16:52:16 51°14.092 2°55.436 16.0257 0.496273 3.08275 -2.871232
2007-04-11 16:53:17 51°13.961 2°55.529 16.0916 0.496067 3.081581 -2.871232
2007-04-11 16:54:17 51°13.839 2°55.624 16.1527 0.495861 3.080412 -2.871232
2007-04-11 16:55:17 51°13.736 2°55.74 16.2159 0.495553 3.078562 -2.871232
2007-04-11 16:56:17 51°13.668 2°55.861 16.2773 0.495347 3.077457 -2.871232
2007-04-11 16:57:17 51°13.628 2°55.971 16.3334 0.495038 3.075541 -2.871232
2007-04-11 16:58:18 51°13.608 2°56.061 16.3921 0.494832 3.074372 -2.871232
2007-04-11 16:59:17 51°13.603 2°56.093 16.4444 0.494523 3.072521 -2.871232
2007-04-11 17:00:17 51°13.601 2°56.098 16.507 0.494214 3.070605 -2.871232